Observations for RAPID CITY REGIONAL, SD (RAP)

KRAP 252209Z 10007KT 10SM OVC030 12/06 A3009
KRAP 252152Z 11006KT 10SM OVC029 11/06 A3009
KRAP 252129Z VRB05KT 10SM OVC029 12/06 A3009
KRAP 252111Z 08007KT 10SM FEW023 OVC031 11/06 A3009
KRAP 252103Z 09007KT 10SM FEW023 OVC029 11/06 A3009
KRAP 252052Z 10007KT 10SM SCT022 OVC030 11/06 A3010 
KRAP 251952Z 16005KT 10SM OVC025 11/06 A3010
KRAP 251907Z 13005KT 10SM BKN018 OVC030 11/06 A3011
KRAP 251852Z 16007KT 10SM FEW017 BKN030 OVC039 10/06 A3011  
KRAP 251819Z 15004KT 10SM SCT011 SCT019 OVC039 10/06 A3012
KRAP 251752Z VRB03KT 10SM BKN011 OVC019 09/06 A3013 RMK CIG008V013  
KRAP 251708Z COR 14007KT 10SM OVC009 08/06 A3014 RMK CIG005V013
KRAP 251652Z COR 14008KT 10SM FEW007 BKN010 OVC013 07/06 A3014  
KRAP 251613Z 14007KT 7SM FEW008 OVC013 07/06 A3014
KRAP 251552Z 16005KT 10SM OVC013 07/06 A3015
KRAP 251514Z 14006KT 10SM BKN009 OVC017 07/05 A3015 RMK CIG008V014
KRAP 251522Z 14005KT 10SM BKN011 OVC017 07/06 A3015
KRAP 251452Z 15006KT 10SM FEW007 OVC017 07/05 A3015 
KRAP 251405Z 00000KT 10SM BKN006 OVC060 07/06 A3014
KRAP 251449Z 13005KT 10SM FEW007 OVC017 07/05 A3014
KRAP 251352Z 00000KT 10SM FEW006 SCT032 OVC060 07/06 A3014  
KRAP 251342Z 05003KT 10SM FEW016 SCT024 OVC060 07/06 A3014
KRAP 251252Z 04003KT 10SM OVC015 07/06 A3013
KRAP 251152Z 02003KT 10SM BKN016 OVC070 07/06 A3013 
KRAP 250352Z 02007KT 10SM BKN020 OVC028 08/06 A3012 
KRAP 250252Z 02008KT 10SM OVC021 08/06 A3011
KRAP 250152Z 01009KT 10SM OVC021 09/05 A3010
KRAP 250052Z 36009KT 10SM OVC024 09/05 A3009
KRAP 242352Z 01011KT 10SM BKN021 OVC045 09/05 A3009 
KRAP 242252Z 35013KT 10SM FEW021 OVC045 10/05 A3007 
KRAP 242241Z 35015KT 10SM SCT021 OVC045 10/05 A3006
KRAP 242206Z 35016KT 10SM BKN022 OVC047 11/06 A3005
KRAP 242152Z COR 36015G21KT 10SM FEW020 OVC047 11/06 A3006  
KRAP 242152Z 36015G21KT 10SM FEW020 OVC047 11/06 A3006
KRAP 242133Z 36015KT 10SM SCT027 OVC047 11/06 A3005 
KRAP 242133Z COR 36015KT 10SM SCT027 OVC047 11/06 A3005